Time;durP1;ratioP1;P1;durP2;ratioP2;P2;SDS_P1;SDS_P2;PMS_P1;PMS_P2;Temp;Humidity;BMP_temperature;BMP_pressure;BME280_temperature;BME280_humidity;BME280_pressure;Samples;Min_cycle;Max_cycle;Signal;HPM_P1;HPM_P2
2023/01/11 00:00:21;;;;;;;;;;;;;;;3.40;99.25;98774.88;106655;1263;126011;-74
2023/01/11 00:03:08;;;;;;;;;;;;;;;3.39;99.05;98772.62;106906;1271;23216;-74
2023/01/11 00:05:38;;;;;;;;;;;;;;;3.39;99.10;98773.20;106590;1281;125155;-74
2023/01/11 00:08:06;;;;;;;;;;;;;;;3.38;98.94;98769.66;106916;1281;22509;-74
2023/01/11 00:10:33;;;;;;;;;;;;;;;3.38;98.95;98769.91;106914;1261;22538;-74
2023/01/11 00:13:00;;;;;;;;;;;;;;;3.36;98.85;98771.17;106579;1275;124431;-74
2023/01/11 00:15:27;;;;;;;;;;;;;;;3.34;98.78;98766.27;106671;1280;25256;-74
2023/01/11 00:17:54;;;;;;;;;;;;;;;3.34;98.81;98761.63;106583;1280;124675;-74
2023/01/11 00:20:20;;;;;;;;;;;;;;;3.32;98.87;98755.77;106646;1262;22808;-74
2023/01/11 00:22:47;;;;;;;;;;;;;;;3.29;98.26;98759.73;106605;1281;23395;-74
2023/01/11 00:25:14;;;;;;;;;;;;;;;3.26;98.17;98759.76;106483;1275;124123;-74
2023/01/11 00:27:40;;;;;;;;;;;;;;;3.24;98.39;98763.52;106577;1282;24312;-74
2023/01/11 00:30:08;;;;;;;;;;;;;;;3.22;98.43;98765.36;106513;1260;124310;-74
2023/01/11 00:32:34;;;;;;;;;;;;;;;3.22;98.59;98767.47;106744;1281;22508;-74
2023/01/11 00:35:02;;;;;;;;;;;;;;;3.21;98.47;98770.68;106546;1281;125048;-74
2023/01/11 00:37:29;;;;;;;;;;;;;;;3.20;98.62;98773.02;106645;1281;22508;-74
2023/01/11 00:39:56;;;;;;;;;;;;;;;3.20;98.61;98780.66;106599;1281;22513;-74
2023/01/11 00:47:59;;;;;;;;;;;;;;;3.18;98.58;98783.65;106275;1282;124379;-73
2023/01/11 00:50:28;;;;;;;;;;;;;;;3.19;98.67;98785.94;106706;1260;23750;-73
2023/01/11 00:52:56;;;;;;;;;;;;;;;3.18;98.64;98781.70;106534;1281;125268;-73
2023/01/11 00:55:23;;;;;;;;;;;;;;;3.18;98.72;98783.07;106607;1281;25069;-73
2023/01/11 00:57:50;;;;;;;;;;;;;;;3.17;98.47;98782.69;106671;1280;22528;-73
2023/01/11 01:00:18;;;;;;;;;;;;;;;3.17;98.35;98783.55;106557;1280;124712;-74
2023/01/11 01:02:45;;;;;;;;;;;;;;;3.16;98.41;98785.40;106592;1262;22548;-73
2023/01/11 01:05:12;;;;;;;;;;;;;;;3.14;98.52;98787.88;106552;1274;124957;-73
2023/01/11 01:07:39;;;;;;;;;;;;;;;3.14;98.70;98793.13;106571;1281;22515;-73
2023/01/11 01:10:06;;;;;;;;;;;;;;;3.14;98.83;98794.41;107139;1275;24261;-73
2023/01/11 01:15:19;;;;;;;;;;;;;;;3.15;98.87;98802.88;107114;1265;23342;-73
2023/01/11 01:17:46;;;;;;;;;;;;;;;3.16;98.90;98798.66;106841;1276;124382;-73
2023/01/11 01:20:14;;;;;;;;;;;;;;;3.16;99.01;98797.17;106790;1280;24357;-73
2023/01/11 01:22:40;;;;;;;;;;;;;;;3.17;99.03;98798.42;106780;1262;25311;-73
2023/01/11 01:25:08;;;;;;;;;;;;;;;3.18;99.07;98801.17;106581;1282;126061;-73
2023/01/11 01:27:35;;;;;;;;;;;;;;;3.19;99.04;98797.33;106921;1271;22473;-73
2023/01/11 01:30:02;;;;;;;;;;;;;;;3.20;98.95;98801.84;106398;1282;124487;-73
2023/01/11 01:32:28;;;;;;;;;;;;;;;3.20;98.98;98798.95;106361;1265;22514;-73
2023/01/11 01:34:55;;;;;;;;;;;;;;;3.20;98.72;98793.48;106270;1285;126487;-73
2023/01/11 01:37:22;;;;;;;;;;;;;;;3.21;98.93;98795.86;106774;1279;22532;-73
2023/01/11 01:39:48;;;;;;;;;;;;;;;3.21;99.13;98791.81;106248;1278;208915;-73
2023/01/11 01:42:17;;;;;;;;;;;;;;;3.22;98.88;98788.84;106238;1267;124473;-73
2023/01/11 01:44:57;;;;;;;;;;;;;;;3.23;99.01;98788.90;106751;1279;25265;-73
2023/01/11 01:47:43;;;;;;;;;;;;;;;3.24;98.98;98789.95;106380;1280;126090;-73
2023/01/11 01:50:21;;;;;;;;;;;;;;;3.23;99.05;98786.79;106528;1282;22511;-73
2023/01/11 01:52:50;;;;;;;;;;;;;;;3.23;98.92;98790.58;107152;1276;22535;-73
2023/01/11 01:55:34;;;;;;;;;;;;;;;3.22;99.16;98789.02;106614;1282;22518;-73
2023/01/11 01:58:03;;;;;;;;;;;;;;;3.23;99.12;98785.58;107126;1275;22653;-73
2023/01/11 02:00:30;;;;;;;;;;;;;;;3.22;98.93;98788.64;106932;1275;124400;-76
2023/01/11 02:02:58;;;;;;;;;;;;;;;3.21;98.88;98790.06;106674;1263;22518;-73
2023/01/11 02:05:25;;;;;;;;;;;;;;;3.20;98.89;98793.78;106626;1278;125497;-73
2023/01/11 02:07:55;;;;;;;;;;;;;;;3.19;99.03;98789.83;106627;1278;24405;-74
2023/01/11 02:10:22;;;;;;;;;;;;;;;3.18;99.10;98788.65;106714;1281;23361;-75
2023/01/11 02:12:51;;;;;;;;;;;;;;;3.17;99.13;98787.70;106718;1261;124303;-74
2023/01/11 02:15:19;;;;;;;;;;;;;;;3.16;99.29;98793.52;106626;1272;22525;-74
2023/01/11 02:17:46;;;;;;;;;;;;;;;3.16;99.34;98792.33;106970;1275;124877;-75
2023/01/11 02:20:16;;;;;;;;;;;;;;;3.16;99.41;98792.58;106720;1274;22655;-74
2023/01/11 02:22:42;;;;;;;;;;;;;;;3.15;99.53;98795.13;106650;1278;22512;-73
2023/01/11 02:25:23;;;;;;;;;;;;;;;3.15;99.44;98796.98;106517;1275;124133;-74
2023/01/11 02:28:13;;;;;;;;;;;;;;;3.14;99.43;98790.84;106599;1282;25224;-73
2023/01/11 02:30:58;;;;;;;;;;;;;;;3.13;99.57;98785.84;106516;1282;124395;-73
2023/01/11 02:33:24;;;;;;;;;;;;;;;3.13;99.35;98791.48;106680;1262;23885;-73
2023/01/11 02:35:51;;;;;;;;;;;;;;;3.11;99.53;98795.65;106341;1281;124798;-73
2023/01/11 02:38:32;;;;;;;;;;;;;;;3.10;99.71;98793.09;106462;1282;22598;-73
2023/01/11 02:41:05;;;;;;;;;;;;;;;3.09;99.60;98786.20;106502;1281;124515;-73
2023/01/11 02:46:23;;;;;;;;;;;;;;;3.08;99.80;98787.27;106532;1281;22797;-73
2023/01/11 02:49:09;;;;;;;;;;;;;;;3.07;99.91;98784.92;106466;1281;124288;-73
2023/01/11 02:51:41;;;;;;;;;;;;;;;3.04;99.96;98786.17;106576;1281;23042;-73
2023/01/11 02:54:10;;;;;;;;;;;;;;;3.04;99.98;98789.33;106381;1262;124786;-73
2023/01/11 02:56:42;;;;;;;;;;;;;;;3.02;99.99;98791.34;106547;1280;25195;-73
2023/01/11 02:59:11;;;;;;;;;;;;;;;3.02;100.00;98791.66;106722;1275;124787;-74
2023/01/11 03:01:49;;;;;;;;;;;;;;;3.02;100.00;98791.67;106492;1281;22537;-75
2023/01/11 03:04:22;;;;;;;;;;;;;;;3.01;100.00;98784.69;106485;1263;22519;-74
2023/01/11 03:06:52;;;;;;;;;;;;;;;3.00;100.00;98781.74;106598;1281;124671;-74
2023/01/11 03:09:25;;;;;;;;;;;;;;;2.99;100.00;98782.20;106533;1281;25382;-74
2023/01/11 03:14:59;;;;;;;;;;;;;;;2.99;100.00;98780.27;106510;1261;25404;-74
2023/01/11 03:17:55;;;;;;;;;;;;;;;2.98;100.00;98782.66;106683;1265;126066;-75
2023/01/11 03:20:30;;;;;;;;;;;;;;;2.99;100.00;98784.55;106098;1288;24293;-74
2023/01/11 03:23:06;;;;;;;;;;;;;;;2.99;100.00;98788.98;106053;1288;125178;-75
2023/01/11 03:25:39;;;;;;;;;;;;;;;2.99;100.00;98792.29;106126;1287;25408;-74
2023/01/11 03:28:11;;;;;;;;;;;;;;;2.98;100.00;98792.52;106663;1286;22997;-75
2023/01/11 03:30:47;;;;;;;;;;;;;;;2.98;100.00;98787.59;106055;1286;125854;-74
2023/01/11 03:33:43;;;;;;;;;;;;;;;2.97;100.00;98788.77;106164;1284;25374;-75
2023/01/11 03:36:13;;;;;;;;;;;;;;;2.96;100.00;98787.62;106292;1281;125169;-75
2023/01/11 03:38:46;;;;;;;;;;;;;;;2.95;100.00;98785.23;106558;1284;22515;-75
2023/01/11 03:41:16;;;;;;;;;;;;;;;2.93;100.00;98785.22;106122;1288;124820;-75
2023/01/11 03:43:45;;;;;;;;;;;;;;;2.93;100.00;98782.02;106078;1281;22536;-74
2023/01/11 03:46:16;;;;;;;;;;;;;;;2.94;100.00;98781.57;106156;1269;22526;-74
2023/01/11 03:48:52;;;;;;;;;;;;;;;2.94;100.00;98780.44;106493;1281;124532;-75
2023/01/11 03:51:26;;;;;;;;;;;;;;;2.94;100.00;98783.53;106175;1287;23058;-75
2023/01/11 03:53:57;;;;;;;;;;;;;;;2.95;100.00;98790.66;106183;1287;125203;-74
2023/01/11 03:56:28;;;;;;;;;;;;;;;2.95;100.00;98790.24;106178;1268;22517;-75
2023/01/11 03:58:55;;;;;;;;;;;;;;;2.96;100.00;98789.55;106522;1281;24261;-74
2023/01/11 04:01:22;;;;;;;;;;;;;;;2.97;100.00;98784.23;106485;1281;124879;-75
2023/01/11 04:03:49;;;;;;;;;;;;;;;2.98;100.00;98780.92;106525;1281;25224;-74
2023/01/11 04:06:17;;;;;;;;;;;;;;;2.98;100.00;98781.05;106513;1259;125698;-75
2023/01/11 04:08:43;;;;;;;;;;;;;;;2.98;100.00;98777.46;106427;1272;22523;-74
2023/01/11 04:11:10;;;;;;;;;;;;;;;2.98;100.00;98772.45;106371;1282;124637;-75
2023/01/11 04:13:37;;;;;;;;;;;;;;;2.99;100.00;98768.59;106471;1282;22523;-74
2023/01/11 04:16:04;;;;;;;;;;;;;;;3.00;100.00;98770.11;106452;1282;22517;-75
2023/01/11 04:18:30;;;;;;;;;;;;;;;2.98;100.00;98773.39;106420;1269;124515;-74
2023/01/11 04:20:58;;;;;;;;;;;;;;;2.94;100.00;98771.13;106644;1280;23879;-75
2023/01/11 04:23:25;;;;;;;;;;;;;;;2.93;100.00;98771.11;106532;1276;124735;-75
2023/01/11 04:25:52;;;;;;;;;;;;;;;2.93;100.00;98773.42;106544;1280;25232;-75
2023/01/11 04:28:19;;;;;;;;;;;;;;;2.93;100.00;98770.54;106537;1263;22498;-74
2023/01/11 04:30:46;;;;;;;;;;;;;;;2.93;100.00;98771.27;106452;1280;124918;-74
2023/01/11 04:33:28;;;;;;;;;;;;;;;2.93;100.00;98763.12;106591;1280;22519;-74
2023/01/11 04:35:55;;;;;;;;;;;;;;;2.94;100.00;98763.86;106450;1280;124646;-73
2023/01/11 04:38:23;;;;;;;;;;;;;;;2.92;100.00;98765.30;106527;1263;24235;-74
2023/01/11 04:42:17;;;;;;;;;;;;;;;2.91;100.00;98770.45;106517;1281;22580;-74
2023/01/11 04:43:37;;;;;;;;;;;;;;;2.89;100.00;98765.17;106550;1280;22543;-74
2023/01/11 04:46:04;;;;;;;;;;;;;;;2.88;100.00;98760.23;106582;1280;26604;-74
2023/01/11 04:48:32;;;;;;;;;;;;;;;2.88;100.00;98758.27;106538;1268;124705;-75
2023/01/11 04:50:58;;;;;;;;;;;;;;;2.89;100.00;98758.06;106553;1278;25642;-74
2023/01/11 04:53:25;;;;;;;;;;;;;;;2.90;100.00;98759.55;106357;1281;125022;-74
2023/01/11 04:55:52;;;;;;;;;;;;;;;2.89;100.00;98761.75;106489;1281;22540;-74
2023/01/11 04:58:19;;;;;;;;;;;;;;;2.89;100.00;98761.98;106488;1257;22649;-74
2023/01/11 05:00:45;;;;;;;;;;;;;;;2.88;100.00;98759.13;106440;1280;124558;-74
2023/01/11 05:03:12;;;;;;;;;;;;;;;2.88;100.00;98761.56;106546;1280;24205;-72
2023/01/11 05:05:39;;;;;;;;;;;;;;;2.87;100.00;98760.39;106432;1280;124716;-73
2023/01/11 05:08:11;;;;;;;;;;;;;;;2.87;100.00;98760.43;106530;1281;24937;-73
2023/01/11 05:10:50;;;;;;;;;;;;;;;2.86;100.00;98761.20;106543;1263;22936;-73
2023/01/11 05:13:16;;;;;;;;;;;;;;;2.85;100.00;98762.03;106749;1281;125090;-73
2023/01/11 05:15:44;;;;;;;;;;;;;;;2.84;100.00;98762.92;106505;1278;22610;-73
2023/01/11 05:18:24;;;;;;;;;;;;;;;2.83;100.00;98763.20;106477;1281;124450;-73
2023/01/11 05:20:50;;;;;;;;;;;;;;;2.82;100.00;98764.23;106534;1271;22510;-73
2023/01/11 05:23:17;;;;;;;;;;;;;;;2.82;100.00;98768.93;106501;1279;124725;-73
2023/01/11 05:25:59;;;;;;;;;;;;;;;2.81;100.00;98767.35;106561;1280;24243;-73
2023/01/11 05:28:26;;;;;;;;;;;;;;;2.81;100.00;98764.16;106573;1280;22528;-73
2023/01/11 05:30:53;;;;;;;;;;;;;;;2.80;100.00;98762.96;106448;1263;124513;-73
2023/01/11 05:33:19;;;;;;;;;;;;;;;2.80;100.00;98764.20;106487;1281;23039;-73
2023/01/11 05:35:46;;;;;;;;;;;;;;;2.80;100.00;98764.65;106382;1281;124582;-73
2023/01/11 05:38:14;;;;;;;;;;;;;;;2.80;100.00;98760.85;106520;1281;22583;-73
2023/01/11 05:40:41;;;;;;;;;;;;;;;2.78;100.00;98754.95;106543;1264;22532;-73
2023/01/11 05:43:08;;;;;;;;;;;;;;;2.79;100.00;98759.16;106417;1281;124739;-73
2023/01/11 05:45:36;;;;;;;;;;;;;;;2.79;100.00;98759.02;106526;1281;24382;-73
2023/01/11 05:48:02;;;;;;;;;;;;;;;2.78;100.00;98756.56;106431;1281;125312;-73
2023/01/11 05:50:29;;;;;;;;;;;;;;;2.77;100.00;98757.41;106527;1270;22519;-73
2023/01/11 05:52:58;;;;;;;;;;;;;;;2.77;100.00;98757.86;106561;1280;22524;-73
2023/01/11 05:55:25;;;;;;;;;;;;;;;2.77;100.00;98756.63;106500;1281;124282;-73
2023/01/11 05:57:52;;;;;;;;;;;;;;;2.77;100.00;98756.63;107112;1280;24394;-73
2023/01/11 06:00:19;;;;;;;;;;;;;;;2.76;100.00;98752.80;106434;1263;124487;-73
2023/01/11 06:02:45;;;;;;;;;;;;;;;2.74;100.00;98750.47;106515;1276;24345;-73
2023/01/11 06:05:12;;;;;;;;;;;;;;;2.73;100.00;98749.92;106413;1281;126365;-73
2023/01/11 06:07:39;;;;;;;;;;;;;;;2.71;100.00;98741.87;106529;1278;22946;-73
2023/01/11 06:10:07;;;;;;;;;;;;;;;2.70;100.00;98742.48;106548;1263;22633;-73
2023/01/11 06:12:33;;;;;;;;;;;;;;;2.69;100.00;98741.75;106432;1280;124978;-73
2023/01/11 06:15:00;;;;;;;;;;;;;;;2.69;100.00;98743.44;106533;1281;22535;-73
2023/01/11 06:17:27;;;;;;;;;;;;;;;2.67;100.00;98745.98;106541;1273;124694;-76
2023/01/11 06:19:54;;;;;;;;;;;;;;;2.66;100.00;98742.26;106885;1276;24377;-73
2023/01/11 06:22:21;;;;;;;;;;;;;;;2.64;100.00;98742.70;106742;1273;23952;-74
2023/01/11 06:24:47;;;;;;;;;;;;;;;2.63;100.00;98744.68;107207;1279;124674;-76
2023/01/11 06:27:15;;;;;;;;;;;;;;;2.61;100.00;98739.42;106688;1266;22512;-73
2023/01/11 06:29:42;;;;;;;;;;;;;;;2.62;100.00;98737.39;106846;1272;124597;-73
2023/01/11 06:32:09;;;;;;;;;;;;;;;2.62;100.00;98738.72;106762;1267;24259;-73
2023/01/11 06:34:35;;;;;;;;;;;;;;;2.62;100.00;98739.79;106508;1281;22647;-73
2023/01/11 06:37:02;;;;;;;;;;;;;;;2.61;100.00;98735.15;106342;1271;125063;-73
2023/01/11 06:39:29;;;;;;;;;;;;;;;2.61;100.00;98736.48;106542;1280;22806;-73
2023/01/11 06:41:56;;;;;;;;;;;;;;;2.61;100.00;98734.16;106443;1271;124466;-73
2023/01/11 06:44:22;;;;;;;;;;;;;;;2.61;100.00;98735.95;106494;1281;22947;-73
2023/01/11 06:46:49;;;;;;;;;;;;;;;2.60;100.00;98735.52;106510;1281;22563;-73
2023/01/11 06:49:16;;;;;;;;;;;;;;;2.60;100.00;98738.58;106668;1278;125814;-73
2023/01/11 06:51:43;;;;;;;;;;;;;;;2.60;100.00;98739.78;106716;1272;22821;-73
2023/01/11 06:54:10;;;;;;;;;;;;;;;2.61;100.00;98750.26;107293;1278;124406;-73
2023/01/11 06:56:37;;;;;;;;;;;;;;;2.62;100.00;98749.27;106719;1281;24249;-73
2023/01/11 06:59:03;;;;;;;;;;;;;;;2.63;100.00;98746.64;106547;1281;25471;-73
2023/01/11 07:01:31;;;;;;;;;;;;;;;2.64;100.00;98740.70;106890;1271;124801;-74
2023/01/11 07:03:57;;;;;;;;;;;;;;;2.66;100.00;98741.02;107826;1273;22496;-73
2023/01/11 07:06:24;;;;;;;;;;;;;;;2.68;100.00;98745.52;106600;1279;124471;-73
2023/01/11 07:08:51;;;;;;;;;;;;;;;2.71;100.00;98741.48;106659;1281;24227;-73
2023/01/11 07:11:18;;;;;;;;;;;;;;;2.78;100.00;98736.70;106557;1261;124612;-74
2023/01/11 07:13:44;;;;;;;;;;;;;;;2.82;100.00;98736.61;106668;1281;22544;-72
2023/01/11 07:16:11;;;;;;;;;;;;;;;2.84;100.00;98730.80;106683;1279;22533;-72
2023/01/11 07:18:38;;;;;;;;;;;;;;;2.85;100.00;98726.85;106452;1281;124520;-73
2023/01/11 07:21:05;;;;;;;;;;;;;;;2.87;100.00;98727.70;108001;1261;23067;-74
2023/01/11 07:23:31;;;;;;;;;;;;;;;2.92;100.00;98735.71;107934;1273;124671;-73
2023/01/11 07:25:58;;;;;;;;;;;;;;;2.96;100.00;98734.35;107003;1281;25500;-73
2023/01/11 07:28:27;;;;;;;;;;;;;;;2.98;100.00;98735.90;106534;1281;22652;-72
2023/01/11 07:30:54;;;;;;;;;;;;;;;2.99;100.00;98738.15;106484;1280;124507;-73
2023/01/11 07:33:20;;;;;;;;;;;;;;;3.00;100.00;98741.18;106630;1263;24320;-73
2023/01/11 07:35:48;;;;;;;;;;;;;;;3.02;100.00;98732.13;106598;1280;124630;-72
2023/01/11 07:38:15;;;;;;;;;;;;;;;3.05;100.00;98731.67;106628;1277;22685;-73
2023/01/11 07:40:42;;;;;;;;;;;;;;;3.07;100.00;98731.61;106659;1274;22530;-72
2023/01/11 07:43:10;;;;;;;;;;;;;;;3.05;100.00;98735.90;106492;1263;125537;-72
2023/01/11 07:45:38;;;;;;;;;;;;;;;3.00;100.00;98740.48;106560;1281;22512;-73
2023/01/11 07:48:05;;;;;;;;;;;;;;;2.99;100.00;98736.09;106570;1281;124438;-72
2023/01/11 07:50:32;;;;;;;;;;;;;;;2.98;100.00;98737.89;108052;1273;23631;-73
2023/01/11 07:52:59;;;;;;;;;;;;;;;2.97;100.00;98735.81;106728;1280;24064;-73
2023/01/11 07:55:26;;;;;;;;;;;;;;;2.95;100.00;98730.73;106765;1280;124687;-73
2023/01/11 07:57:56;;;;;;;;;;;;;;;2.93;100.00;98727.32;106662;1280;22523;-72
2023/01/11 08:00:23;;;;;;;;;;;;;;;2.96;100.00;98730.63;106933;1273;124683;-73
2023/01/11 08:02:51;;;;;;;;;;;;;;;2.96;100.00;98722.85;106720;1263;23931;-73
2023/01/11 08:05:18;;;;;;;;;;;;;;;2.98;100.00;98722.63;106912;1280;125518;-73
2023/01/11 08:07:46;;;;;;;;;;;;;;;2.98;100.00;98716.40;106677;1281;22591;-73
2023/01/11 08:10:13;;;;;;;;;;;;;;;2.94;100.00;98716.83;106802;1281;22648;-73
2023/01/11 08:15:26;;;;;;;;;;;;;;;2.93;100.00;98712.30;106694;1280;25337;-73
2023/01/11 08:17:53;;;;;;;;;;;;;;;2.94;100.00;98712.48;106753;1281;124693;-73
2023/01/11 08:20:20;;;;;;;;;;;;;;;2.95;100.00;98708.27;106660;1280;22512;-73
2023/01/11 08:22:47;;;;;;;;;;;;;;;2.95;100.00;98703.29;106707;1263;24325;-73
2023/01/11 08:25:14;;;;;;;;;;;;;;;2.95;100.00;98698.20;106551;1281;124844;-73
2023/01/11 08:27:41;;;;;;;;;;;;;;;2.99;100.00;98691.83;106609;1281;22519;-72
2023/01/11 08:30:08;;;;;;;;;;;;;;;3.00;100.00;98690.03;106479;1281;125771;-73
2023/01/11 08:32:35;;;;;;;;;;;;;;;3.02;100.00;98693.61;106979;1264;22567;-73
2023/01/11 08:35:02;;;;;;;;;;;;;;;3.07;100.00;98693.54;106625;1280;24369;-73
2023/01/11 08:37:28;;;;;;;;;;;;;;;3.13;100.00;98696.70;106627;1273;124578;-73
2023/01/11 08:39:56;;;;;;;;;;;;;;;3.19;100.00;98702.56;106613;1281;22521;-73
2023/01/11 08:42:23;;;;;;;;;;;;;;;3.24;100.00;98708.78;106557;1280;124461;-74
2023/01/11 08:44:49;;;;;;;;;;;;;;;3.27;100.00;98711.33;107082;1273;22534;-74
2023/01/11 08:47:16;;;;;;;;;;;;;;;3.32;100.00;98714.59;106684;1273;124945;-74
2023/01/11 08:49:43;;;;;;;;;;;;;;;3.38;100.00;98717.50;106801;1273;22526;-74
2023/01/11 08:52:13;;;;;;;;;;;;;;;3.42;100.00;98717.52;106565;1281;25345;-73
2023/01/11 08:54:40;;;;;;;;;;;;;;;3.45;100.00;98716.94;106640;1273;124456;-73
2023/01/11 08:57:07;;;;;;;;;;;;;;;3.49;100.00;98718.48;106767;1276;24377;-73
2023/01/11 08:59:34;;;;;;;;;;;;;;;3.54;100.00;98715.98;107800;1270;126177;-74
2023/01/11 09:02:01;;;;;;;;;;;;;;;3.60;100.00;98709.19;106840;1273;22539;-74
2023/01/11 09:04:28;;;;;;;;;;;;;;;3.66;100.00;98715.66;106806;1263;25268;-74
2023/01/11 09:06:55;;;;;;;;;;;;;;;3.71;100.00;98711.65;107062;1275;125042;-73
2023/01/11 09:09:22;;;;;;;;;;;;;;;3.75;100.00;98706.52;106720;1274;25269;-74
2023/01/11 09:11:56;;;;;;;;;;;;;;;3.82;100.00;98696.20;106662;1270;125479;-73
2023/01/11 09:14:23;;;;;;;;;;;;;;;3.88;100.00;98690.35;107514;1257;22503;-74
2023/01/11 09:16:51;;;;;;;;;;;;;;;3.97;100.00;98692.08;108032;1273;22554;-74
2023/01/11 09:19:18;;;;;;;;;;;;;;;4.04;100.00;98690.88;107710;1273;126025;-74
2023/01/11 09:21:45;;;;;;;;;;;;;;;4.09;100.00;98681.59;107250;1278;22524;-73
2023/01/11 09:24:12;;;;;;;;;;;;;;;4.12;100.00;98678.04;108306;1260;124918;-74
2023/01/11 09:26:42;;;;;;;;;;;;;;;4.15;100.00;98686.23;108297;1273;25271;-74
2023/01/11 09:29:09;;;;;;;;;;;;;;;4.16;100.00;98683.49;108265;1273;22536;-73
2023/01/11 09:31:36;;;;;;;;;;;;;;;4.19;100.00;98685.67;107631;1276;124697;-74
2023/01/11 09:34:03;;;;;;;;;;;;;;;4.23;100.00;98688.98;108622;1263;22440;-74
2023/01/11 09:36:31;;;;;;;;;;;;;;;4.25;100.00;98685.63;108514;1277;125130;-74
2023/01/11 09:39:00;;;;;;;;;;;;;;;4.28;100.00;98681.66;106789;1279;24261;-73
2023/01/11 09:41:40;;;;;;;;;;;;;;;4.32;100.00;98677.91;106701;1267;125168;-73
2023/01/11 09:44:15;;;;;;;;;;;;;;;4.37;99.99;98676.28;106645;1257;22513;-73
2023/01/11 09:46:45;;;;;;;;;;;;;;;4.43;99.87;98667.27;106866;1279;25316;-73
2023/01/11 09:49:33;;;;;;;;;;;;;;;4.48;99.21;98659.15;106613;1280;125021;-73
2023/01/11 09:52:13;;;;;;;;;;;;;;;4.52;99.27;98655.15;106561;1280;23033;-73
2023/01/11 09:54:42;;;;;;;;;;;;;;;4.59;99.26;98648.52;106535;1266;124416;-73
2023/01/11 09:57:29;;;;;;;;;;;;;;;4.67;99.22;98651.80;106902;1273;22524;-73
2023/01/11 10:00:08;;;;;;;;;;;;;;;4.78;98.99;98646.02;106545;1280;124955;-73
2023/01/11 10:02:45;;;;;;;;;;;;;;;4.90;98.89;98646.45;106658;1280;24255;-73
2023/01/11 10:05:20;;;;;;;;;;;;;;;5.01;98.50;98642.59;106592;1262;22550;-73
2023/01/11 10:07:56;;;;;;;;;;;;;;;5.13;98.09;98649.76;106610;1282;22531;-73
2023/01/11 10:10:50;;;;;;;;;;;;;;;5.26;98.14;98645.05;107247;1275;22553;-74
2023/01/11 10:13:41;;;;;;;;;;;;;;;5.38;97.42;98637.82;107221;1275;124271;-74
2023/01/11 10:16:13;;;;;;;;;;;;;;;5.43;96.22;98632.43;107386;1263;22526;-74
2023/01/11 10:18:47;;;;;;;;;;;;;;;5.42;95.51;98627.40;106543;1280;125595;-74
2023/01/11 10:21:22;;;;;;;;;;;;;;;5.41;95.22;98630.52;106679;1281;24231;-74
2023/01/11 10:23:53;;;;;;;;;;;;;;;5.38;94.83;98620.67;106479;1281;124489;-73
2023/01/11 10:26:28;;;;;;;;;;;;;;;5.31;94.13;98614.06;106600;1261;24312;-74
2023/01/11 10:29:21;;;;;;;;;;;;;;;5.23;93.83;98608.65;106867;1281;24223;-73
2023/01/11 10:32:32;;;;;;;;;;;;;;;5.18;93.84;98604.79;107240;1273;24195;-74
2023/01/11 10:35:23;;;;;;;;;;;;;;;5.13;93.79;98595.58;106573;1260;22525;-73
2023/01/11 10:38:26;;;;;;;;;;;;;;;5.19;94.33;98590.09;106523;1282;24944;-73
2023/01/11 10:41:02;;;;;;;;;;;;;;;5.28;94.42;98591.66;106531;1282;25219;-73
2023/01/11 10:43:36;;;;;;;;;;;;;;;5.35;94.18;98586.19;106499;1281;125559;-73
2023/01/11 10:46:09;;;;;;;;;;;;;;;5.36;93.87;98592.88;106587;1276;22999;-73
2023/01/11 10:49:02;;;;;;;;;;;;;;;5.33;93.32;98592.00;107190;1274;124905;-74
2023/01/11 10:51:36;;;;;;;;;;;;;;;5.28;92.91;98597.90;106586;1281;25288;-73
2023/01/11 10:54:12;;;;;;;;;;;;;;;5.25;92.84;98605.09;106533;1281;124456;-74
2023/01/11 10:56:42;;;;;;;;;;;;;;;5.22;92.56;98602.71;106671;1263;25592;-73
2023/01/11 10:59:14;;;;;;;;;;;;;;;5.22;92.66;98601.44;106793;1277;24350;-74
2023/01/11 11:01:51;;;;;;;;;;;;;;;5.26;92.81;98602.52;106692;1276;125466;-73
2023/01/11 11:04:26;;;;;;;;;;;;;;;5.28;92.58;98597.35;106591;1279;22525;-73
2023/01/11 11:06:53;;;;;;;;;;;;;;;5.27;92.23;98586.70;106444;1263;124306;-73
2023/01/11 11:09:25;;;;;;;;;;;;;;;5.27;92.04;98586.39;106472;1282;26931;-73
2023/01/11 11:11:56;;;;;;;;;;;;;;;5.27;91.93;98584.19;106512;1282;124522;-74
2023/01/11 11:14:29;;;;;;;;;;;;;;;5.27;92.23;98578.25;106995;1280;22536;-74
2023/01/11 11:16:56;;;;;;;;;;;;;;;5.30;92.04;98576.47;106511;1281;22634;-73
2023/01/11 11:19:25;;;;;;;;;;;;;;;5.34;92.07;98571.39;106490;1278;125484;-74
2023/01/11 11:21:52;;;;;;;;;;;;;;;5.39;91.70;98569.64;106788;1281;22515;-73
2023/01/11 11:24:23;;;;;;;;;;;;;;;5.44;91.68;98566.77;106572;1280;124231;-74
2023/01/11 11:26:57;;;;;;;;;;;;;;;5.50;91.21;98564.32;106645;1261;24048;-74
2023/01/11 11:29:29;;;;;;;;;;;;;;;5.56;91.02;98564.69;106650;1281;25355;-73
2023/01/11 11:31:58;;;;;;;;;;;;;;;5.63;91.36;98563.96;106655;1275;22622;-74
2023/01/11 11:34:26;;;;;;;;;;;;;;;5.72;90.75;98564.99;106830;1280;22530;-74
2023/01/11 11:36:56;;;;;;;;;;;;;;;5.75;90.10;98558.95;106470;1260;124287;-74
2023/01/11 11:39:27;;;;;;;;;;;;;;;5.77;89.82;98554.27;106568;1280;24325;-74
2023/01/11 11:41:56;;;;;;;;;;;;;;;5.79;89.71;98551.92;107236;1273;125834;-74
2023/01/11 11:44:24;;;;;;;;;;;;;;;5.80;89.85;98548.67;106673;1279;24256;-74
2023/01/11 11:46:55;;;;;;;;;;;;;;;5.86;89.76;98542.17;107115;1262;24248;-74
2023/01/11 11:49:23;;;;;;;;;;;;;;;5.92;89.79;98532.13;106612;1273;125421;-74
2023/01/11 11:51:50;;;;;;;;;;;;;;;5.99;89.46;98529.73;106847;1279;22510;-74
2023/01/11 11:54:19;;;;;;;;;;;;;;;6.02;89.00;98523.15;106600;1280;124850;-74
2023/01/11 11:56:46;;;;;;;;;;;;;;;6.07;88.88;98521.27;106601;1274;25384;-74
2023/01/11 11:59:14;;;;;;;;;;;;;;;6.14;88.58;98519.44;107062;1273;23029;-74
2023/01/11 12:01:45;;;;;;;;;;;;;;;6.18;87.55;98520.05;106532;1280;124239;-74
2023/01/11 12:04:17;;;;;;;;;;;;;;;6.23;87.41;98516.61;106593;1280;25453;-74
2023/01/11 12:06:48;;;;;;;;;;;;;;;6.27;86.66;98520.00;106557;1257;124691;-75
2023/01/11 12:09:34;;;;;;;;;;;;;;;6.32;86.83;98517.57;106729;1273;22507;-74
2023/01/11 12:12:01;;;;;;;;;;;;;;;6.37;86.98;98513.96;106729;1273;124488;-74
2023/01/11 12:14:34;;;;;;;;;;;;;;;6.42;87.02;98511.85;106633;1272;22522;-74
2023/01/11 12:17:20;;;;;;;;;;;;;;;6.46;86.53;98508.74;106777;1260;22934;-74
2023/01/11 12:19:46;;;;;;;;;;;;;;;6.49;86.03;98496.57;107160;1273;124141;-74
2023/01/11 12:22:21;;;;;;;;;;;;;;;6.53;86.19;98489.52;106590;1281;25272;-74
2023/01/11 12:25:07;;;;;;;;;;;;;;;6.58;85.95;98488.48;106847;1280;124841;-74
2023/01/11 12:27:34;;;;;;;;;;;;;;;6.61;85.62;98491.67;106580;1280;22563;-74
2023/01/11 12:30:10;;;;;;;;;;;;;;;6.64;84.91;98496.98;106437;1280;126222;-74
2023/01/11 12:32:52;;;;;;;;;;;;;;;6.67;84.54;98494.96;107286;1272;22995;-74
2023/01/11 12:35:48;;;;;;;;;;;;;;;6.69;83.95;98493.40;107296;1273;24186;-74
2023/01/11 12:38:23;;;;;;;;;;;;;;;6.71;83.94;98487.60;106319;1270;23886;-74
2023/01/11 12:40:50;;;;;;;;;;;;;;;6.74;83.83;98479.73;107266;1281;24054;-74
2023/01/11 12:43:24;;;;;;;;;;;;;;;6.73;83.20;98476.19;106653;1281;124318;-74
2023/01/11 12:46:11;;;;;;;;;;;;;;;6.74;83.40;98470.85;106942;1280;25530;-74
2023/01/11 12:48:51;;;;;;;;;;;;;;;6.75;83.00;98464.86;106059;1268;124374;-74
2023/01/11 12:51:36;;;;;;;;;;;;;;;6.74;83.05;98462.81;106404;1285;22548;-74
2023/01/11 12:54:14;;;;;;;;;;;;;;;6.71;82.70;98458.84;107602;1281;125008;-74
2023/01/11 12:56:53;;;;;;;;;;;;;;;6.71;82.81;98452.02;107622;1272;25403;-74
2023/01/11 12:59:32;;;;;;;;;;;;;;;6.72;82.43;98455.17;107155;1268;22527;-75
2023/01/11 13:02:18;;;;;;;;;;;;;;;6.69;82.08;98453.68;108154;1281;125204;-75
2023/01/11 13:05:02;;;;;;;;;;;;;;;6.70;82.55;98447.81;106557;1281;22556;-74
2023/01/11 13:07:48;;;;;;;;;;;;;;;6.74;82.44;98441.54;106908;1281;125051;-74
2023/01/11 13:10:22;;;;;;;;;;;;;;;6.73;81.11;98441.13;107885;1269;22629;-74
2023/01/11 13:12:59;;;;;;;;;;;;;;;6.70;80.95;98442.77;106057;1287;125472;-74